UPS673 KBOS-KRDU
Flight info
| Callsign | UPS673 |
|---|---|
| Flight time | 1h 49m |
| Altitude | 38000 |
| Route | SSOXS7 SSOXS Q167 ZJAAY TAQLE3 |
| Aircraft | B748/H-V/N |
Departure
| Time | 2026-05-06 23:46 |
|---|---|
| Airport | Boston Logan International Airport (KBOS) |
Arrival
| Time | 2026-05-07 01:35 |
|---|---|
| Airport | Raleigh-Durham International Airport (KRDU) |
| Time | Latitude | Longitude | Altitude | Speed | Heading |
|---|---|---|---|---|---|
| 2026-05-06 23:07 | 42.37351 | -71.02378 | 30 ft | 0 kts | 311° |
| 2026-05-06 23:27 | 42.37342 | -71.02366 | 30 ft | 4 kts | 337° |
| 2026-05-06 23:27 | 42.37287 | -71.02385 | 27 ft | 13 kts | 31° |
| 2026-05-06 23:27 | 42.37245 | -71.02427 | 27 ft | 1 kts | 52° |
| 2026-05-06 23:27 | 42.37235 | -71.02461 | 28 ft | 6 kts | 97° |
| 2026-05-06 23:28 | 42.37239 | -71.02480 | 27 ft | 2 kts | 116° |
| 2026-05-06 23:28 | 42.37230 | -71.02469 | 26 ft | 0 kts | 137° |
| 2026-05-06 23:29 | 42.37222 | -71.02460 | 28 ft | 3 kts | 135° |
| 2026-05-06 23:29 | 42.37196 | -71.02424 | 30 ft | 6 kts | 134° |
| 2026-05-06 23:30 | 42.37168 | -71.02380 | 30 ft | 6 kts | 128° |
| 2026-05-06 23:30 | 42.37150 | -71.02340 | 30 ft | 5 kts | 116° |
| 2026-05-06 23:30 | 42.37137 | -71.02287 | 30 ft | 6 kts | 99° |
| 2026-05-06 23:30 | 42.37151 | -71.02211 | 31 ft | 12 kts | 64° |
| 2026-05-06 23:31 | 42.37201 | -71.02089 | 33 ft | 16 kts | 62° |
| 2026-05-06 23:31 | 42.37231 | -71.01994 | 36 ft | 7 kts | 68° |
| 2026-05-06 23:31 | 42.37247 | -71.01960 | 36 ft | 4 kts | 53° |
| 2026-05-06 23:31 | 42.37274 | -71.01921 | 36 ft | 8 kts | 41° |
| 2026-05-06 23:32 | 42.37345 | -71.01865 | 35 ft | 16 kts | 33° |
| 2026-05-06 23:32 | 42.37380 | -71.01742 | 37 ft | 14 kts | 109° |
| 2026-05-06 23:32 | 42.37301 | -71.01613 | 36 ft | 22 kts | 136° |
| 2026-05-06 23:32 | 42.37183 | -71.01457 | 36 ft | 24 kts | 135° |
| 2026-05-06 23:33 | 42.37070 | -71.01309 | 32 ft | 18 kts | 134° |
| 2026-05-06 23:33 | 42.37028 | -71.01252 | 32 ft | 4 kts | 134° |
| 2026-05-06 23:33 | 42.37011 | -71.01228 | 32 ft | 3 kts | 134° |
| 2026-05-06 23:33 | 42.37006 | -71.01221 | 32 ft | 0 kts | 134° |
| 2026-05-06 23:36 | 42.36991 | -71.01199 | 32 ft | 12 kts | 134° |
| 2026-05-06 23:37 | 42.36914 | -71.01096 | 30 ft | 8 kts | 135° |
| 2026-05-06 23:37 | 42.36910 | -71.01091 | 30 ft | 0 kts | 135° |
| 2026-05-06 23:38 | 42.36901 | -71.01079 | 31 ft | 7 kts | 135° |
| 2026-05-06 23:38 | 42.36858 | -71.01022 | 32 ft | 11 kts | 136° |
| 2026-05-06 23:38 | 42.36793 | -71.00937 | 33 ft | 15 kts | 136° |
| 2026-05-06 23:39 | 42.36730 | -71.00847 | 34 ft | 6 kts | 112° |
| 2026-05-06 23:39 | 42.36730 | -71.00819 | 34 ft | 3 kts | 75° |
| 2026-05-06 23:39 | 42.36763 | -71.00775 | 33 ft | 10 kts | 31° |
| 2026-05-06 23:39 | 42.36844 | -71.00726 | 30 ft | 15 kts | 22° |
| 2026-05-06 23:40 | 42.36938 | -71.00686 | 28 ft | 12 kts | 19° |
| 2026-05-06 23:40 | 42.37016 | -71.00649 | 29 ft | 12 kts | 19° |
| 2026-05-06 23:40 | 42.37106 | -71.00606 | 27 ft | 15 kts | 19° |
| 2026-05-06 23:40 | 42.37208 | -71.00557 | 28 ft | 16 kts | 19° |
| 2026-05-06 23:41 | 42.37313 | -71.00506 | 28 ft | 17 kts | 20° |
| 2026-05-06 23:41 | 42.37425 | -71.00451 | 28 ft | 18 kts | 19° |
| 2026-05-06 23:41 | 42.37538 | -71.00399 | 31 ft | 17 kts | 19° |
| 2026-05-06 23:41 | 42.37652 | -71.00347 | 30 ft | 18 kts | 18° |
| 2026-05-06 23:42 | 42.37734 | -71.00279 | 30 ft | 10 kts | 59° |
| 2026-05-06 23:42 | 42.37733 | -71.00186 | 30 ft | 11 kts | 105° |
| 2026-05-06 23:42 | 42.37719 | -71.00126 | 28 ft | 0 kts | 108° |
| 2026-05-06 23:45 | 42.37676 | -71.00002 | 28 ft | 19 kts | 134° |
| 2026-05-06 23:45 | 42.37559 | -70.99994 | 32 ft | 32 kts | 196° |
| 2026-05-06 23:46 | 42.37050 | -71.00232 | 33 ft | 123 kts | 200° |
| 2026-05-06 23:46 | 42.35963 | -71.00762 | 54 ft | 207 kts | 199° |
| 2026-05-06 23:46 | 42.34409 | -71.01462 | 685 ft | 255 kts | 193° |
| 2026-05-06 23:46 | 42.32655 | -71.01647 | 2494 ft | 257 kts | 179° |
| 2026-05-06 23:47 | 42.31182 | -71.00795 | 3765 ft | 219 kts | 147° |
| 2026-05-06 23:47 | 42.30124 | -70.99252 | 3998 ft | 229 kts | 135° |
| 2026-05-06 23:47 | 42.29065 | -70.97444 | 4297 ft | 259 kts | 133° |
| 2026-05-06 23:47 | 42.27972 | -70.95510 | 5319 ft | 260 kts | 132° |
| 2026-05-06 23:48 | 42.26878 | -70.93532 | 6415 ft | 266 kts | 132° |
| 2026-05-06 23:48 | 42.25778 | -70.91506 | 7448 ft | 271 kts | 132° |
| 2026-05-06 23:48 | 42.24584 | -70.89308 | 7751 ft | 312 kts | 132° |
| 2026-05-06 23:48 | 42.23273 | -70.86906 | 8862 ft | 312 kts | 132° |
| 2026-05-06 23:49 | 42.22020 | -70.84547 | 10150 ft | 314 kts | 133° |
| 2026-05-06 23:49 | 42.20658 | -70.81985 | 10200 ft | 352 kts | 132° |
| 2026-05-06 23:49 | 42.19213 | -70.79282 | 10397 ft | 356 kts | 132° |
| 2026-05-06 23:49 | 42.17782 | -70.76591 | 10561 ft | 357 kts | 132° |
| 2026-05-06 23:50 | 42.16340 | -70.73865 | 10880 ft | 358 kts | 132° |
| 2026-05-06 23:50 | 42.13442 | -70.68334 | 11623 ft | 363 kts | 132° |
| 2026-05-06 23:50 | 42.11879 | -70.65714 | 12150 ft | 355 kts | 145° |
| 2026-05-06 23:51 | 42.09826 | -70.64005 | 12506 ft | 335 kts | 171° |
| 2026-05-06 23:51 | 42.07605 | -70.63398 | 12863 ft | 323 kts | 186° |
| 2026-05-06 23:51 | 42.05418 | -70.63702 | 13266 ft | 314 kts | 197° |
| 2026-05-06 23:51 | 42.03270 | -70.64232 | 13661 ft | 317 kts | 193° |
| 2026-05-06 23:52 | 42.01290 | -70.64819 | 15401 ft | 279 kts | 197° |
| 2026-05-06 23:52 | 41.99210 | -70.64508 | 15598 ft | 320 kts | 182° |
| 2026-05-06 23:52 | 41.97159 | -70.64996 | 16521 ft | 298 kts | 208° |
| 2026-05-06 23:52 | 41.95277 | -70.66401 | 16368 ft | 318 kts | 217° |
| 2026-05-06 23:53 | 41.93478 | -70.68063 | 15740 ft | 319 kts | 219° |
| 2026-05-06 23:53 | 41.91687 | -70.69806 | 15417 ft | 313 kts | 218° |
| 2026-05-06 23:53 | 41.89780 | -70.71286 | 15416 ft | 314 kts | 211° |
| 2026-05-06 23:53 | 41.87772 | -70.72487 | 15416 ft | 317 kts | 207° |
| 2026-05-06 23:54 | 41.85712 | -70.73499 | 15419 ft | 318 kts | 205° |
| 2026-05-06 23:54 | 41.83639 | -70.74533 | 15498 ft | 317 kts | 208° |
| 2026-05-06 23:54 | 41.81604 | -70.75829 | 15877 ft | 332 kts | 212° |
| 2026-05-06 23:54 | 41.79550 | -70.77355 | 16438 ft | 343 kts | 214° |
| 2026-05-06 23:55 | 41.77456 | -70.79004 | 17013 ft | 354 kts | 214° |
| 2026-05-06 23:55 | 41.75306 | -70.80706 | 17598 ft | 365 kts | 214° |
| 2026-05-06 23:55 | 41.73087 | -70.82454 | 18182 ft | 374 kts | 214° |
| 2026-05-06 23:55 | 41.70810 | -70.84242 | 18686 ft | 383 kts | 214° |
| 2026-05-06 23:56 | 41.68472 | -70.86010 | 19206 ft | 391 kts | 213° |
| 2026-05-06 23:56 | 41.66080 | -70.87745 | 19726 ft | 398 kts | 213° |
| 2026-05-06 23:56 | 41.63649 | -70.89569 | 20249 ft | 404 kts | 214° |
| 2026-05-06 23:56 | 41.61195 | -70.91452 | 20783 ft | 409 kts | 215° |
| 2026-05-06 23:57 | 41.58681 | -70.93303 | 21326 ft | 415 kts | 214° |
| 2026-05-06 23:57 | 41.56163 | -70.95212 | 21873 ft | 416 kts | 219° |
| 2026-05-06 23:57 | 41.54052 | -70.97789 | 22453 ft | 411 kts | 231° |
| 2026-05-06 23:57 | 41.52185 | -71.00688 | 23060 ft | 412 kts | 236° |
| 2026-05-06 23:58 | 41.50530 | -71.03816 | 23623 ft | 412 kts | 240° |
| 2026-05-06 23:58 | 41.48997 | -71.07055 | 24114 ft | 414 kts | 242° |
| 2026-05-06 23:58 | 41.47467 | -71.10313 | 24614 ft | 416 kts | 241° |
| 2026-05-06 23:58 | 41.45900 | -71.13568 | 25130 ft | 417 kts | 241° |
| 2026-05-06 23:59 | 41.44316 | -71.16817 | 25649 ft | 418 kts | 241° |
| 2026-05-06 23:59 | 41.42718 | -71.20065 | 26176 ft | 419 kts | 240° |
| 2026-05-06 23:59 | 41.41088 | -71.23226 | 26704 ft | 419 kts | 240° |
| 2026-05-06 23:59 | 41.39429 | -71.26475 | 27265 ft | 419 kts | 240° |
| 2026-05-07 00:00 | 41.37827 | -71.29645 | 27821 ft | 418 kts | 240° |
| 2026-05-07 00:00 | 41.36210 | -71.32854 | 28398 ft | 417 kts | 240° |
| 2026-05-07 00:00 | 41.34595 | -71.36056 | 28978 ft | 416 kts | 240° |
| 2026-05-07 00:00 | 41.32986 | -71.39243 | 29600 ft | 414 kts | 240° |
| 2026-05-07 00:01 | 41.31378 | -71.42420 | 30151 ft | 413 kts | 241° |
| 2026-05-07 00:01 | 41.29775 | -71.45574 | 30674 ft | 411 kts | 241° |
| 2026-05-07 00:01 | 41.28176 | -71.48708 | 31205 ft | 409 kts | 241° |
| 2026-05-07 00:01 | 41.26578 | -71.51832 | 31740 ft | 406 kts | 241° |
| 2026-05-07 00:02 | 41.24992 | -71.54924 | 32311 ft | 404 kts | 241° |
| 2026-05-07 00:02 | 41.23408 | -71.58000 | 32865 ft | 401 kts | 242° |
| 2026-05-07 00:02 | 41.21836 | -71.61047 | 33446 ft | 399 kts | 242° |
| 2026-05-07 00:02 | 41.20283 | -71.64046 | 34003 ft | 396 kts | 242° |
| 2026-05-07 00:03 | 41.18714 | -71.67070 | 34521 ft | 392 kts | 242° |
| 2026-05-07 00:03 | 41.17180 | -71.70039 | 35041 ft | 388 kts | 243° |
| 2026-05-07 00:03 | 41.15664 | -71.72994 | 35569 ft | 384 kts | 243° |
| 2026-05-07 00:03 | 41.14189 | -71.75924 | 36132 ft | 380 kts | 244° |
| 2026-05-07 00:04 | 41.12723 | -71.78827 | 36682 ft | 376 kts | 244° |
| 2026-05-07 00:04 | 41.11264 | -71.81681 | 37257 ft | 371 kts | 244° |
| 2026-05-07 00:04 | 41.09818 | -71.84494 | 37822 ft | 367 kts | 244° |
| 2026-05-07 00:04 | 41.08389 | -71.87287 | 37844 ft | 375 kts | 244° |
| 2026-05-07 00:05 | 41.05424 | -71.93155 | 37877 ft | 390 kts | 244° |
| 2026-05-07 00:05 | 41.02469 | -71.99319 | 37882 ft | 401 kts | 248° |
| 2026-05-07 00:06 | 41.00099 | -72.06096 | 37874 ft | 411 kts | 252° |
| 2026-05-07 00:06 | 40.97798 | -72.13087 | 37866 ft | 416 kts | 251° |
| 2026-05-07 00:07 | 40.95352 | -72.20031 | 37872 ft | 416 kts | 250° |
| 2026-05-07 00:07 | 40.92862 | -72.26961 | 37871 ft | 416 kts | 250° |
| 2026-05-07 00:08 | 40.89372 | -72.33201 | 37901 ft | 437 kts | 233° |
| 2026-05-07 00:08 | 40.85337 | -72.39017 | 37880 ft | 432 kts | 236° |
| 2026-05-07 00:09 | 40.81147 | -72.44767 | 37872 ft | 436 kts | 233° |
| 2026-05-07 00:09 | 40.76310 | -72.49815 | 37891 ft | 442 kts | 230° |
| 2026-05-07 00:10 | 40.71629 | -72.55063 | 37884 ft | 441 kts | 231° |
| 2026-05-07 00:10 | 40.66985 | -72.60315 | 37880 ft | 439 kts | 231° |
| 2026-05-07 00:11 | 40.62399 | -72.65629 | 37870 ft | 438 kts | 232° |
| 2026-05-07 00:11 | 40.57856 | -72.70919 | 37874 ft | 438 kts | 232° |
| 2026-05-07 00:12 | 40.53245 | -72.76188 | 37874 ft | 439 kts | 231° |
| 2026-05-07 00:12 | 40.48641 | -72.81452 | 37862 ft | 438 kts | 232° |
| 2026-05-07 00:13 | 40.44059 | -72.86736 | 37864 ft | 439 kts | 231° |
| 2026-05-07 00:13 | 40.39418 | -72.91960 | 37875 ft | 438 kts | 232° |
| 2026-05-07 00:14 | 40.34834 | -72.97222 | 37867 ft | 438 kts | 232° |
| 2026-05-07 00:14 | 40.30243 | -73.02403 | 37872 ft | 439 kts | 231° |
| 2026-05-07 00:15 | 40.25637 | -73.07643 | 37864 ft | 438 kts | 232° |
| 2026-05-07 00:15 | 40.21022 | -73.12863 | 37868 ft | 439 kts | 231° |
| 2026-05-07 00:16 | 40.16402 | -73.18075 | 37894 ft | 438 kts | 232° |
| 2026-05-07 00:16 | 40.11784 | -73.23301 | 37889 ft | 440 kts | 231° |
| 2026-05-07 00:17 | 40.07138 | -73.28496 | 37875 ft | 439 kts | 232° |
| 2026-05-07 00:17 | 40.02522 | -73.33708 | 37882 ft | 440 kts | 231° |
| 2026-05-07 00:18 | 39.97867 | -73.38873 | 37878 ft | 439 kts | 232° |
| 2026-05-07 00:18 | 39.93281 | -73.44046 | 37885 ft | 439 kts | 232° |
| 2026-05-07 00:19 | 39.88602 | -73.49203 | 37889 ft | 439 kts | 232° |
| 2026-05-07 00:19 | 39.83982 | -73.54404 | 37884 ft | 439 kts | 232° |
| 2026-05-07 00:20 | 39.79313 | -73.59548 | 37889 ft | 439 kts | 232° |
| 2026-05-07 00:20 | 39.74698 | -73.64734 | 37890 ft | 438 kts | 232° |
| 2026-05-07 00:21 | 39.70014 | -73.69877 | 37344 ft | 441 kts | 231° |
| 2026-05-07 00:21 | 39.67692 | -73.72470 | 36807 ft | 439 kts | 232° |
| 2026-05-07 00:21 | 39.65398 | -73.75043 | 36279 ft | 432 kts | 232° |
| 2026-05-07 00:22 | 39.63113 | -73.77540 | 35775 ft | 426 kts | 231° |
| 2026-05-07 00:22 | 39.60862 | -73.79999 | 35284 ft | 420 kts | 231° |
| 2026-05-07 00:22 | 39.58680 | -73.82418 | 34809 ft | 415 kts | 231° |
| 2026-05-07 00:22 | 39.56504 | -73.84845 | 34331 ft | 411 kts | 231° |
| 2026-05-07 00:23 | 39.54347 | -73.87250 | 33871 ft | 408 kts | 231° |
| 2026-05-07 00:23 | 39.52171 | -73.89602 | 33337 ft | 403 kts | 230° |
| 2026-05-07 00:23 | 39.50038 | -73.91939 | 32820 ft | 400 kts | 230° |
| 2026-05-07 00:23 | 39.47934 | -73.94277 | 32305 ft | 398 kts | 230° |
| 2026-05-07 00:24 | 39.45844 | -73.96607 | 31890 ft | 395 kts | 230° |
| 2026-05-07 00:24 | 39.43760 | -73.98844 | 31904 ft | 385 kts | 230° |
| 2026-05-07 00:24 | 39.40350 | -74.02582 | 31906 ft | 388 kts | 230° |
| 2026-05-07 00:25 | 39.36209 | -74.07150 | 31903 ft | 394 kts | 229° |
| 2026-05-07 00:25 | 39.31992 | -74.11729 | 31896 ft | 398 kts | 230° |
| 2026-05-07 00:26 | 39.27738 | -74.16370 | 31886 ft | 403 kts | 229° |
| 2026-05-07 00:26 | 39.23486 | -74.21016 | 31882 ft | 404 kts | 230° |
| 2026-05-07 00:27 | 39.19153 | -74.25689 | 31891 ft | 406 kts | 229° |
| 2026-05-07 00:27 | 39.14854 | -74.30403 | 31910 ft | 405 kts | 229° |
| 2026-05-07 00:28 | 39.10514 | -74.35054 | 31909 ft | 405 kts | 229° |
| 2026-05-07 00:28 | 39.06214 | -74.39746 | 31903 ft | 406 kts | 229° |
| 2026-05-07 00:29 | 39.01877 | -74.44391 | 31900 ft | 404 kts | 230° |
| 2026-05-07 00:30 | 38.93250 | -74.53700 | 31893 ft | 403 kts | 230° |
| 2026-05-07 00:30 | 38.89118 | -74.58476 | 31896 ft | 401 kts | 231° |
| 2026-05-07 00:31 | 38.85028 | -74.63344 | 31891 ft | 401 kts | 232° |
| 2026-05-07 00:31 | 38.80938 | -74.68219 | 31897 ft | 402 kts | 231° |
| 2026-05-07 00:32 | 38.76772 | -74.73016 | 31901 ft | 402 kts | 231° |
| 2026-05-07 00:32 | 38.72551 | -74.77777 | 31895 ft | 406 kts | 228° |
| 2026-05-07 00:33 | 38.68127 | -74.82240 | 31901 ft | 407 kts | 227° |
| 2026-05-07 00:33 | 38.63771 | -74.86770 | 31900 ft | 392 kts | 229° |
| 2026-05-07 00:34 | 38.59568 | -74.91211 | 31898 ft | 393 kts | 228° |
| 2026-05-07 00:34 | 38.55296 | -74.95591 | 31906 ft | 394 kts | 229° |
| 2026-05-07 00:35 | 38.51071 | -75.00066 | 31896 ft | 393 kts | 230° |
| 2026-05-07 00:35 | 38.46946 | -75.04639 | 31894 ft | 396 kts | 226° |
| 2026-05-07 00:36 | 38.42433 | -75.08769 | 31905 ft | 397 kts | 227° |
| 2026-05-07 00:36 | 38.38080 | -75.13104 | 31894 ft | 397 kts | 227° |
| 2026-05-07 00:37 | 38.33705 | -75.17423 | 31886 ft | 399 kts | 226° |
| 2026-05-07 00:37 | 38.29207 | -75.21608 | 31890 ft | 400 kts | 225° |
| 2026-05-07 00:38 | 38.24771 | -75.25869 | 31892 ft | 400 kts | 226° |
| 2026-05-07 00:38 | 38.20279 | -75.30063 | 31892 ft | 401 kts | 226° |
| 2026-05-07 00:39 | 38.15845 | -75.34288 | 31890 ft | 401 kts | 225° |
| 2026-05-07 00:39 | 38.11355 | -75.38499 | 31907 ft | 400 kts | 226° |
| 2026-05-07 00:40 | 38.06863 | -75.42710 | 31906 ft | 402 kts | 225° |
| 2026-05-07 00:40 | 38.02488 | -75.47054 | 31924 ft | 396 kts | 230° |
| 2026-05-07 00:41 | 37.98535 | -75.51879 | 31906 ft | 394 kts | 232° |
| 2026-05-07 00:41 | 37.94594 | -75.56727 | 31914 ft | 395 kts | 232° |
| 2026-05-07 00:42 | 37.90541 | -75.61475 | 31909 ft | 398 kts | 230° |
| 2026-05-07 00:42 | 37.86465 | -75.66217 | 31906 ft | 397 kts | 231° |
| 2026-05-07 00:43 | 37.82392 | -75.70965 | 31904 ft | 399 kts | 230° |
| 2026-05-07 00:43 | 37.78325 | -75.75732 | 31908 ft | 399 kts | 231° |
| 2026-05-07 00:44 | 37.74208 | -75.80467 | 31908 ft | 400 kts | 230° |
| 2026-05-07 00:44 | 37.70154 | -75.85218 | 31630 ft | 404 kts | 230° |
| 2026-05-07 00:45 | 37.68042 | -75.87622 | 31086 ft | 402 kts | 229° |
| 2026-05-07 00:45 | 37.66028 | -75.89982 | 30593 ft | 399 kts | 229° |
| 2026-05-07 00:45 | 37.63996 | -75.92356 | 30090 ft | 397 kts | 228° |
| 2026-05-07 00:45 | 37.61945 | -75.94688 | 29543 ft | 395 kts | 227° |
| 2026-05-07 00:46 | 37.59958 | -75.97052 | 28961 ft | 389 kts | 231° |
| 2026-05-07 00:46 | 37.58176 | -75.99566 | 28417 ft | 378 kts | 235° |
| 2026-05-07 00:46 | 37.56571 | -76.02087 | 27846 ft | 359 kts | 237° |
| 2026-05-07 00:46 | 37.55082 | -76.04511 | 27304 ft | 342 kts | 238° |
| 2026-05-07 00:47 | 37.53648 | -76.06832 | 26758 ft | 328 kts | 238° |
| 2026-05-07 00:47 | 37.52255 | -76.09069 | 26248 ft | 322 kts | 238° |
| 2026-05-07 00:47 | 37.50879 | -76.11273 | 25747 ft | 319 kts | 238° |
| 2026-05-07 00:47 | 37.49513 | -76.13462 | 25267 ft | 317 kts | 238° |
| 2026-05-07 00:48 | 37.48129 | -76.15618 | 24772 ft | 316 kts | 237° |
| 2026-05-07 00:48 | 37.46723 | -76.17737 | 24306 ft | 314 kts | 238° |
| 2026-05-07 00:48 | 37.45352 | -76.19857 | 23955 ft | 310 kts | 238° |
| 2026-05-07 00:48 | 37.44014 | -76.21963 | 23963 ft | 308 kts | 239° |
| 2026-05-07 00:49 | 37.42656 | -76.24074 | 23963 ft | 310 kts | 238° |
| 2026-05-07 00:49 | 37.41292 | -76.26136 | 23950 ft | 311 kts | 238° |
| 2026-05-07 00:49 | 37.39928 | -76.28256 | 23951 ft | 311 kts | 239° |
| 2026-05-07 00:49 | 37.38569 | -76.30385 | 23949 ft | 312 kts | 238° |
| 2026-05-07 00:50 | 37.37182 | -76.32489 | 23950 ft | 314 kts | 237° |
| 2026-05-07 00:50 | 37.35798 | -76.34612 | 23948 ft | 313 kts | 238° |
| 2026-05-07 00:50 | 37.34437 | -76.36747 | 23945 ft | 313 kts | 238° |
| 2026-05-07 00:50 | 37.33045 | -76.38867 | 23939 ft | 315 kts | 237° |
| 2026-05-07 00:51 | 37.31652 | -76.40983 | 23946 ft | 315 kts | 238° |
| 2026-05-07 00:51 | 37.30274 | -76.43117 | 23948 ft | 315 kts | 238° |
| 2026-05-07 00:51 | 37.28895 | -76.45258 | 23951 ft | 315 kts | 238° |
| 2026-05-07 00:51 | 37.27489 | -76.47417 | 23952 ft | 315 kts | 237° |
| 2026-05-07 00:52 | 37.26128 | -76.49527 | 23949 ft | 315 kts | 238° |
| 2026-05-07 00:52 | 37.24743 | -76.51664 | 23953 ft | 315 kts | 237° |
| 2026-05-07 00:52 | 37.23380 | -76.53817 | 23966 ft | 314 kts | 240° |
| 2026-05-07 00:52 | 37.22327 | -76.56176 | 23951 ft | 306 kts | 256° |
| 2026-05-07 00:53 | 37.21754 | -76.58728 | 23965 ft | 305 kts | 256° |
| 2026-05-07 00:53 | 37.21107 | -76.61264 | 23981 ft | 306 kts | 255° |
| 2026-05-07 00:53 | 37.20544 | -76.63822 | 23973 ft | 304 kts | 261° |
| 2026-05-07 00:53 | 37.20056 | -76.66406 | 23956 ft | 304 kts | 258° |
| 2026-05-07 00:54 | 37.19569 | -76.68978 | 23952 ft | 303 kts | 261° |
| 2026-05-07 00:54 | 37.19180 | -76.71583 | 23792 ft | 305 kts | 263° |
| 2026-05-07 00:54 | 37.18771 | -76.74187 | 23370 ft | 304 kts | 260° |
| 2026-05-07 00:54 | 37.18306 | -76.76765 | 22925 ft | 302 kts | 257° |
| 2026-05-07 00:55 | 37.17819 | -76.79279 | 22503 ft | 299 kts | 260° |
| 2026-05-07 00:55 | 37.17367 | -76.81823 | 22075 ft | 297 kts | 260° |
| 2026-05-07 00:55 | 37.16920 | -76.84333 | 21961 ft | 294 kts | 259° |
| 2026-05-07 00:55 | 37.16473 | -76.86840 | 21877 ft | 295 kts | 261° |
| 2026-05-07 00:56 | 37.16011 | -76.89333 | 21959 ft | 295 kts | 259° |
| 2026-05-07 00:56 | 37.15574 | -76.91842 | 22097 ft | 294 kts | 259° |
| 2026-05-07 00:56 | 37.15129 | -76.94347 | 22253 ft | 295 kts | 260° |
| 2026-05-07 00:56 | 37.14674 | -76.96866 | 22402 ft | 296 kts | 260° |
| 2026-05-07 00:57 | 37.14227 | -76.99394 | 22574 ft | 297 kts | 262° |
| 2026-05-07 00:57 | 37.13749 | -77.01922 | 22744 ft | 299 kts | 260° |
| 2026-05-07 00:57 | 37.13315 | -77.04479 | 22903 ft | 300 kts | 261° |
| 2026-05-07 00:57 | 37.12919 | -77.07049 | 23060 ft | 301 kts | 261° |
| 2026-05-07 00:58 | 37.12499 | -77.09622 | 23219 ft | 301 kts | 262° |
| 2026-05-07 00:58 | 37.12122 | -77.12212 | 23395 ft | 303 kts | 260° |
| 2026-05-07 00:58 | 37.11673 | -77.14797 | 23529 ft | 304 kts | 259° |
| 2026-05-07 00:58 | 37.11203 | -77.17385 | 23653 ft | 305 kts | 259° |
| 2026-05-07 00:59 | 37.10247 | -77.22572 | 23913 ft | 306 kts | 257° |
| 2026-05-07 00:59 | 37.09576 | -77.25110 | 24048 ft | 312 kts | 243° |
| 2026-05-07 00:59 | 37.08276 | -77.27318 | 24250 ft | 319 kts | 232° |
| 2026-05-07 01:00 | 37.06506 | -77.29063 | 24425 ft | 332 kts | 217° |
| 2026-05-07 01:00 | 37.04427 | -77.30326 | 24587 ft | 337 kts | 214° |
| 2026-05-07 01:00 | 37.02519 | -77.31913 | 24683 ft | 322 kts | 238° |
| 2026-05-07 01:00 | 37.01344 | -77.34226 | 25034 ft | 311 kts | 242° |
| 2026-05-07 01:01 | 37.00225 | -77.36528 | 25334 ft | 312 kts | 242° |
| 2026-05-07 01:01 | 36.98997 | -77.38820 | 25345 ft | 323 kts | 238° |
| 2026-05-07 01:01 | 36.97721 | -77.41157 | 25231 ft | 327 kts | 239° |
| 2026-05-07 01:01 | 36.96439 | -77.43524 | 24575 ft | 328 kts | 240° |
| 2026-05-07 01:02 | 36.95159 | -77.45877 | 23819 ft | 325 kts | 241° |
| 2026-05-07 01:02 | 36.93944 | -77.48231 | 23175 ft | 319 kts | 242° |
| 2026-05-07 01:02 | 36.92874 | -77.50592 | 23179 ft | 295 kts | 246° |
| 2026-05-07 01:02 | 36.91956 | -77.52780 | 23970 ft | 285 kts | 245° |
| 2026-05-07 01:03 | 36.90964 | -77.55097 | 23020 ft | 315 kts | 245° |
| 2026-05-07 01:03 | 36.89922 | -77.57503 | 22195 ft | 313 kts | 244° |
| 2026-05-07 01:03 | 36.88849 | -77.59803 | 21926 ft | 309 kts | 243° |
| 2026-05-07 01:03 | 36.87677 | -77.62028 | 22142 ft | 304 kts | 238° |
| 2026-05-07 01:04 | 36.86463 | -77.64203 | 22273 ft | 310 kts | 240° |
| 2026-05-07 01:04 | 36.85301 | -77.66488 | 21977 ft | 309 kts | 244° |
| 2026-05-07 01:04 | 36.84244 | -77.68813 | 21980 ft | 307 kts | 244° |
| 2026-05-07 01:04 | 36.83080 | -77.71063 | 21986 ft | 310 kts | 240° |
| 2026-05-07 01:05 | 36.81831 | -77.73264 | 21993 ft | 310 kts | 238° |
| 2026-05-07 01:05 | 36.80584 | -77.75453 | 21995 ft | 310 kts | 239° |
| 2026-05-07 01:05 | 36.79344 | -77.77655 | 22004 ft | 310 kts | 234° |
| 2026-05-07 01:05 | 36.77597 | -77.79274 | 22004 ft | 329 kts | 201° |
| 2026-05-07 01:06 | 36.75254 | -77.79752 | 21601 ft | 353 kts | 181° |
| 2026-05-07 01:06 | 36.72862 | -77.78715 | 21043 ft | 384 kts | 146° |
| 2026-05-07 01:06 | 36.70896 | -77.76380 | 20090 ft | 393 kts | 137° |
| 2026-05-07 01:06 | 36.69062 | -77.73913 | 19428 ft | 383 kts | 139° |
| 2026-05-07 01:07 | 36.67215 | -77.71606 | 19347 ft | 372 kts | 141° |
| 2026-05-07 01:07 | 36.65380 | -77.69350 | 19534 ft | 370 kts | 141° |
| 2026-05-07 01:07 | 36.63546 | -77.67159 | 19864 ft | 370 kts | 143° |
| 2026-05-07 01:07 | 36.61643 | -77.65009 | 20437 ft | 366 kts | 146° |
| 2026-05-07 01:08 | 36.59706 | -77.63040 | 21167 ft | 357 kts | 145° |
| 2026-05-07 01:08 | 36.57859 | -77.60868 | 21290 ft | 373 kts | 141° |
| 2026-05-07 01:08 | 36.56033 | -77.58527 | 21710 ft | 374 kts | 140° |
| 2026-05-07 01:08 | 36.54838 | -77.57002 | 22058 ft | 374 kts | 140° |
| 2026-05-07 01:09 | 36.52956 | -77.54644 | 21566 ft | 393 kts | 140° |
| 2026-05-07 01:09 | 36.50324 | -77.51440 | 19056 ft | 400 kts | 141° |
| 2026-05-07 01:09 | 36.48231 | -77.49020 | 16967 ft | 405 kts | 143° |
| 2026-05-07 01:09 | 36.46250 | -77.46812 | 16495 ft | 361 kts | 143° |
| 2026-05-07 01:10 | 36.45095 | -77.45296 | 16325 ft | 358 kts | 130° |
| 2026-05-07 01:10 | 36.43918 | -77.42598 | 16355 ft | 356 kts | 109° |
| 2026-05-07 01:10 | 36.43498 | -77.39638 | 16806 ft | 341 kts | 87° |
| 2026-05-07 01:10 | 36.43839 | -77.36773 | 17017 ft | 335 kts | 69° |
| 2026-05-07 01:11 | 36.44823 | -77.34147 | 16692 ft | 340 kts | 48° |
| 2026-05-07 01:11 | 36.46495 | -77.32125 | 16087 ft | 340 kts | 23° |
| 2026-05-07 01:11 | 36.48675 | -77.31179 | 15397 ft | 330 kts | 355° |
| 2026-05-07 01:11 | 36.50869 | -77.31598 | 14748 ft | 313 kts | 329° |
| 2026-05-07 01:12 | 36.52335 | -77.33274 | 15013 ft | 275 kts | 285° |
| 2026-05-07 01:12 | 36.52575 | -77.35535 | 15408 ft | 260 kts | 266° |
| 2026-05-07 01:12 | 36.52368 | -77.37747 | 15682 ft | 255 kts | 262° |
| 2026-05-07 01:12 | 36.52059 | -77.39913 | 15843 ft | 255 kts | 261° |
| 2026-05-07 01:13 | 36.51662 | -77.42119 | 15558 ft | 269 kts | 255° |
| 2026-05-07 01:13 | 36.50970 | -77.44347 | 15239 ft | 281 kts | 248° |
| 2026-05-07 01:13 | 36.50048 | -77.46488 | 14989 ft | 282 kts | 243° |
| 2026-05-07 01:13 | 36.49016 | -77.48582 | 14664 ft | 283 kts | 241° |
| 2026-05-07 01:14 | 36.47980 | -77.50659 | 14316 ft | 282 kts | 242° |
| 2026-05-07 01:14 | 36.47008 | -77.52736 | 13964 ft | 280 kts | 244° |
| 2026-05-07 01:14 | 36.46072 | -77.54863 | 13596 ft | 279 kts | 244° |
| 2026-05-07 01:14 | 36.45133 | -77.56963 | 13207 ft | 277 kts | 243° |
| 2026-05-07 01:15 | 36.44176 | -77.59027 | 12822 ft | 276 kts | 243° |
| 2026-05-07 01:15 | 36.43215 | -77.61078 | 12439 ft | 273 kts | 243° |
| 2026-05-07 01:15 | 36.42290 | -77.63131 | 12064 ft | 271 kts | 244° |
| 2026-05-07 01:15 | 36.41365 | -77.65166 | 11683 ft | 269 kts | 243° |
| 2026-05-07 01:16 | 36.40429 | -77.67172 | 11327 ft | 267 kts | 243° |
| 2026-05-07 01:16 | 36.39512 | -77.69173 | 10970 ft | 266 kts | 244° |
| 2026-05-07 01:16 | 36.38612 | -77.71168 | 10619 ft | 264 kts | 243° |
| 2026-05-07 01:16 | 36.37695 | -77.73137 | 10254 ft | 261 kts | 242° |
| 2026-05-07 01:17 | 36.36793 | -77.75084 | 9986 ft | 259 kts | 243° |
| 2026-05-07 01:17 | 36.35924 | -77.77014 | 9985 ft | 259 kts | 243° |
| 2026-05-07 01:17 | 36.35011 | -77.78974 | 9990 ft | 259 kts | 242° |
| 2026-05-07 01:17 | 36.34127 | -77.80881 | 9987 ft | 258 kts | 243° |
| 2026-05-07 01:18 | 36.33251 | -77.82825 | 9983 ft | 259 kts | 243° |
| 2026-05-07 01:18 | 36.32346 | -77.84766 | 9984 ft | 260 kts | 242° |
| 2026-05-07 01:18 | 36.31440 | -77.86708 | 9981 ft | 259 kts | 243° |
| 2026-05-07 01:18 | 36.30562 | -77.88653 | 9976 ft | 258 kts | 243° |
| 2026-05-07 01:19 | 36.29662 | -77.90582 | 9980 ft | 259 kts | 242° |
| 2026-05-07 01:19 | 36.28754 | -77.92526 | 9978 ft | 259 kts | 243° |
| 2026-05-07 01:19 | 36.27873 | -77.94475 | 9975 ft | 259 kts | 243° |
| 2026-05-07 01:19 | 36.26978 | -77.96388 | 9969 ft | 259 kts | 242° |
| 2026-05-07 01:20 | 36.26074 | -77.98325 | 9971 ft | 259 kts | 243° |
| 2026-05-07 01:20 | 36.25190 | -78.00276 | 9979 ft | 260 kts | 243° |
| 2026-05-07 01:20 | 36.24287 | -78.02208 | 9984 ft | 260 kts | 243° |
| 2026-05-07 01:20 | 36.23428 | -78.04187 | 9974 ft | 260 kts | 246° |
| 2026-05-07 01:21 | 36.22681 | -78.06218 | 9979 ft | 259 kts | 248° |
| 2026-05-07 01:21 | 36.21977 | -78.08275 | 9979 ft | 259 kts | 249° |
| 2026-05-07 01:21 | 36.21292 | -78.10333 | 9978 ft | 259 kts | 249° |
| 2026-05-07 01:21 | 36.20596 | -78.12393 | 9986 ft | 259 kts | 248° |
| 2026-05-07 01:22 | 36.19868 | -78.14439 | 9986 ft | 260 kts | 248° |
| 2026-05-07 01:22 | 36.19140 | -78.16453 | 9993 ft | 259 kts | 248° |
| 2026-05-07 01:22 | 36.18426 | -78.18534 | 9996 ft | 260 kts | 249° |
| 2026-05-07 01:22 | 36.17721 | -78.20566 | 9915 ft | 261 kts | 248° |
| 2026-05-07 01:23 | 36.16986 | -78.22614 | 9787 ft | 259 kts | 248° |
| 2026-05-07 01:23 | 36.16274 | -78.24666 | 9661 ft | 259 kts | 249° |
| 2026-05-07 01:23 | 36.15578 | -78.26692 | 9539 ft | 256 kts | 249° |
| 2026-05-07 01:23 | 36.14929 | -78.28751 | 9414 ft | 257 kts | 251° |
| 2026-05-07 01:24 | 36.14433 | -78.30877 | 9058 ft | 257 kts | 256° |
| 2026-05-07 01:24 | 36.14037 | -78.33032 | 8695 ft | 256 kts | 258° |
| 2026-05-07 01:24 | 36.13678 | -78.35188 | 8331 ft | 255 kts | 259° |
| 2026-05-07 01:24 | 36.13335 | -78.37336 | 7883 ft | 252 kts | 259° |
| 2026-05-07 01:25 | 36.13008 | -78.39444 | 7388 ft | 247 kts | 259° |
| 2026-05-07 01:25 | 36.12684 | -78.41515 | 6910 ft | 244 kts | 261° |
| 2026-05-07 01:25 | 36.12815 | -78.43590 | 6436 ft | 246 kts | 287° |
| 2026-05-07 01:25 | 36.13360 | -78.45589 | 5946 ft | 243 kts | 284° |
| 2026-05-07 01:26 | 36.13807 | -78.47590 | 5457 ft | 240 kts | 282° |
| 2026-05-07 01:26 | 36.14241 | -78.49510 | 4977 ft | 218 kts | 284° |
| 2026-05-07 01:26 | 36.14697 | -78.51196 | 4969 ft | 202 kts | 285° |
| 2026-05-07 01:26 | 36.15153 | -78.52814 | 4981 ft | 201 kts | 285° |
| 2026-05-07 01:27 | 36.15618 | -78.54458 | 4884 ft | 203 kts | 284° |
| 2026-05-07 01:27 | 36.16060 | -78.56120 | 4515 ft | 202 kts | 283° |
| 2026-05-07 01:27 | 36.16316 | -78.57806 | 4129 ft | 198 kts | 261° |
| 2026-05-07 01:27 | 36.16192 | -78.59473 | 3746 ft | 194 kts | 246° |
| 2026-05-07 01:28 | 36.15304 | -78.60712 | 3247 ft | 193 kts | 225° |
| 2026-05-07 01:28 | 36.14218 | -78.61696 | 2992 ft | 197 kts | 217° |
| 2026-05-07 01:28 | 36.13005 | -78.62513 | 2974 ft | 200 kts | 207° |
| 2026-05-07 01:28 | 36.11687 | -78.63020 | 2996 ft | 203 kts | 198° |
| 2026-05-07 01:29 | 36.10273 | -78.63193 | 3004 ft | 206 kts | 190° |
| 2026-05-07 01:29 | 36.08862 | -78.63399 | 2980 ft | 202 kts | 195° |
| 2026-05-07 01:29 | 36.07585 | -78.63681 | 2953 ft | 169 kts | 197° |
| 2026-05-07 01:29 | 36.06464 | -78.63901 | 2974 ft | 161 kts | 197° |
| 2026-05-07 01:30 | 36.05376 | -78.64165 | 3191 ft | 155 kts | 202° |
| 2026-05-07 01:30 | 36.04326 | -78.64516 | 3352 ft | 157 kts | 202° |
| 2026-05-07 01:30 | 36.03269 | -78.64883 | 3515 ft | 157 kts | 204° |
| 2026-05-07 01:30 | 36.02205 | -78.65279 | 3592 ft | 160 kts | 205° |
| 2026-05-07 01:31 | 36.01151 | -78.65722 | 3575 ft | 161 kts | 207° |
| 2026-05-07 01:31 | 36.00184 | -78.66218 | 3403 ft | 147 kts | 211° |
| 2026-05-07 01:31 | 35.99295 | -78.66761 | 3312 ft | 136 kts | 214° |
| 2026-05-07 01:31 | 35.98470 | -78.67324 | 3174 ft | 136 kts | 217° |
| 2026-05-07 01:32 | 35.97672 | -78.67966 | 3006 ft | 139 kts | 219° |
| 2026-05-07 01:32 | 35.96901 | -78.68653 | 2987 ft | 136 kts | 223° |
| 2026-05-07 01:32 | 35.96190 | -78.69421 | 2832 ft | 135 kts | 226° |
| 2026-05-07 01:32 | 35.95507 | -78.70226 | 2581 ft | 137 kts | 227° |
| 2026-05-07 01:33 | 35.94835 | -78.71092 | 2015 ft | 142 kts | 226° |
| 2026-05-07 01:33 | 35.94152 | -78.71961 | 1768 ft | 141 kts | 225° |
| 2026-05-07 01:33 | 35.93442 | -78.72818 | 1603 ft | 145 kts | 225° |
| 2026-05-07 01:33 | 35.92712 | -78.73681 | 1357 ft | 146 kts | 225° |
| 2026-05-07 01:34 | 35.91983 | -78.74586 | 1155 ft | 152 kts | 225° |
| 2026-05-07 01:34 | 35.91233 | -78.75530 | 933 ft | 155 kts | 223° |
| 2026-05-07 01:34 | 35.90465 | -78.76483 | 746 ft | 158 kts | 223° |
| 2026-05-07 01:34 | 35.89676 | -78.77440 | 536 ft | 160 kts | 224° |
| 2026-05-07 01:35 | 35.88918 | -78.78372 | 406 ft | 138 kts | 226° |
| 2026-05-07 01:35 | 35.88349 | -78.79080 | 398 ft | 86 kts | 225° |
| 2026-05-07 01:35 | 35.88039 | -78.79452 | 394 ft | 17 kts | 221° |
| 2026-05-07 01:35 | 35.87963 | -78.79472 | 395 ft | 8 kts | 163° |
| 2026-05-07 01:36 | 35.87946 | -78.79457 | 394 ft | 0 kts | 139° |
| 2026-05-07 01:37 | 35.87944 | -78.79455 | 394 ft | 3 kts | 139° |
| 2026-05-07 01:37 | 35.87936 | -78.79442 | 395 ft | 2 kts | 122° |
| 2026-05-07 01:37 | 35.87938 | -78.79415 | 396 ft | 4 kts | 71° |
| 2026-05-07 01:37 | 35.87968 | -78.79356 | 395 ft | 10 kts | 50° |
| 2026-05-07 01:38 | 35.88010 | -78.79303 | 393 ft | 8 kts | 44° |
| 2026-05-07 01:38 | 35.88048 | -78.79258 | 393 ft | 7 kts | 43° |
| 2026-05-07 01:38 | 35.88080 | -78.79222 | 397 ft | 6 kts | 43° |
| 2026-05-07 01:38 | 35.88120 | -78.79172 | 398 ft | 11 kts | 45° |
| 2026-05-07 01:39 | 35.88186 | -78.79089 | 396 ft | 15 kts | 46° |
| 2026-05-07 01:39 | 35.88219 | -78.79015 | 395 ft | 4 kts | 84° |
| 2026-05-07 01:39 | 35.88220 | -78.78977 | 399 ft | 5 kts | 86° |
| 2026-05-07 01:39 | 35.88241 | -78.78923 | 398 ft | 9 kts | 54° |
| 2026-05-07 01:40 | 35.88307 | -78.78833 | 400 ft | 15 kts | 45° |
| 2026-05-07 01:40 | 35.88381 | -78.78740 | 400 ft | 15 kts | 45° |
| 2026-05-07 01:40 | 35.88448 | -78.78660 | 406 ft | 13 kts | 42° |
| 2026-05-07 01:40 | 35.88505 | -78.78594 | 401 ft | 11 kts | 44° |
| 2026-05-07 01:41 | 35.88556 | -78.78532 | 405 ft | 10 kts | 45° |
| 2026-05-07 01:41 | 35.88607 | -78.78470 | 403 ft | 11 kts | 45° |
| 2026-05-07 01:41 | 35.88673 | -78.78388 | 404 ft | 15 kts | 45° |
| 2026-05-07 01:41 | 35.88725 | -78.78302 | 405 ft | 9 kts | 70° |
| 2026-05-07 01:42 | 35.88736 | -78.78224 | 406 ft | 10 kts | 76° |
| 2026-05-07 01:42 | 35.88767 | -78.78163 | 402 ft | 9 kts | 48° |
| 2026-05-07 01:42 | 35.88808 | -78.78113 | 406 ft | 8 kts | 45° |
| 2026-05-07 01:42 | 35.88838 | -78.78061 | 403 ft | 6 kts | 61° |
| 2026-05-07 01:43 | 35.88846 | -78.78032 | 406 ft | 2 kts | 79° |
| 2026-05-07 01:43 | 35.88843 | -78.78003 | 409 ft | 5 kts | 101° |
| 2026-05-07 01:43 | 35.88828 | -78.77971 | 404 ft | 3 kts | 140° |
| 2026-05-07 01:43 | 35.88814 | -78.77957 | 410 ft | 0 kts | 135° |